createdAt,value
2023-03-03T00:04:06.259Z,4.63
2023-03-03T00:09:08.986Z,4.78
2023-03-03T00:14:23.004Z,4.71
2023-03-03T00:19:27.114Z,4.67
2023-03-03T00:24:38.308Z,4.73
2023-03-03T00:29:45.921Z,5.23
2023-03-03T00:34:51.076Z,5.13
2023-03-03T00:39:53.883Z,4.66
2023-03-03T00:45:00.632Z,4.37
2023-03-03T00:50:30.566Z,4.62
2023-03-03T00:55:35.373Z,4.34
2023-03-03T01:00:39.997Z,4.36
2023-03-03T01:05:46.229Z,4.42
2023-03-03T01:10:51.828Z,4.45
2023-03-03T01:15:55.226Z,4.75
2023-03-03T01:20:59.518Z,4.33
2023-03-03T01:26:02.690Z,4.33
2023-03-03T01:31:06.775Z,4.71
2023-03-03T01:36:11.605Z,4.90
2023-03-03T01:41:14.309Z,4.67
2023-03-03T01:46:44.113Z,4.46
2023-03-03T01:51:51.958Z,4.86
2023-03-03T01:57:00.360Z,4.49
2023-03-03T02:02:03.144Z,4.41
2023-03-03T02:07:11.007Z,4.93
2023-03-03T02:12:17.710Z,4.63
2023-03-03T02:17:21.019Z,4.46
2023-03-03T02:22:45.209Z,4.30
2023-03-03T02:27:49.347Z,4.77
2023-03-03T02:32:52.212Z,3.92
2023-03-03T02:37:57.848Z,4.03
2023-03-03T02:43:05.963Z,3.92
2023-03-03T02:48:08.805Z,4.09
2023-03-03T02:53:11.572Z,4.10
2023-03-03T02:58:16.619Z,3.75
2023-03-03T03:03:19.502Z,3.58
2023-03-03T03:08:23.239Z,3.76
2023-03-03T03:13:28.203Z,3.51
2023-03-03T03:18:31.169Z,4.12
2023-03-03T03:23:35.688Z,3.71
2023-03-03T03:28:40.257Z,3.58
2023-03-03T03:33:43.470Z,3.59
2023-03-03T03:38:47.389Z,4.16
2023-03-03T03:43:51.616Z,3.93
2023-03-03T03:48:54.602Z,3.60
2023-03-03T03:53:57.940Z,3.46
2023-03-03T03:59:02.415Z,3.89
2023-03-03T04:04:05.494Z,3.64
2023-03-03T04:09:08.806Z,3.25
2023-03-03T04:14:13.137Z,3.04
2023-03-03T04:19:15.934Z,3.30
2023-03-03T04:24:19.761Z,3.53
2023-03-03T04:29:26.423Z,3.76
2023-03-03T04:34:29.541Z,3.58
2023-03-03T04:39:32.681Z,3.44
2023-03-03T04:44:36.853Z,3.31
2023-03-03T04:49:40.169Z,3.73
2023-03-03T04:54:43.137Z,3.74
2023-03-03T04:59:47.608Z,3.60
2023-03-03T05:04:50.486Z,3.76
2023-03-03T05:09:53.402Z,4.07
2023-03-03T05:14:57.517Z,3.95
2023-03-03T05:20:00.332Z,3.91
2023-03-03T05:25:03.055Z,3.64
2023-03-03T05:30:08.612Z,3.75
2023-03-03T05:35:11.577Z,3.90
2023-03-03T05:40:15.317Z,3.91
2023-03-03T05:45:21.263Z,3.31
2023-03-03T05:50:24.875Z,3.57
2023-03-03T05:55:27.662Z,3.58
2023-03-03T06:00:31.787Z,3.96
2023-03-03T06:05:34.735Z,4.55
2023-03-03T06:10:37.535Z,4.62
2023-03-03T06:15:44.394Z,4.01
2023-03-03T06:20:47.148Z,4.42
2023-03-03T06:25:50.444Z,4.31
2023-03-03T06:30:56.115Z,4.04
2023-03-03T06:35:58.927Z,4.57
2023-03-03T06:41:02.496Z,3.91
2023-03-03T06:46:07.457Z,3.61
2023-03-03T06:51:23.670Z,3.89
2023-03-03T06:56:27.666Z,3.63
2023-03-03T07:01:36.163Z,3.73
2023-03-03T07:06:39.005Z,3.59
2023-03-03T07:11:41.834Z,4.17
2023-03-03T07:16:46.383Z,4.16
2023-03-03T07:21:49.348Z,4.21
2023-03-03T07:26:52.683Z,3.78
2023-03-03T07:31:58.188Z,4.11
2023-03-03T07:37:06.311Z,4.16
2023-03-03T07:42:26.163Z,4.02
2023-03-03T07:47:38.670Z,4.57
2023-03-03T07:52:42.922Z,4.35
2023-03-03T07:57:47.114Z,5.58
2023-03-03T08:02:58.509Z,5.26
2023-03-03T08:08:17.807Z,5.37
2023-03-03T08:13:22.389Z,6.13
2023-03-03T08:18:29.886Z,5.10
2023-03-03T08:23:32.658Z,4.80
2023-03-03T08:28:35.425Z,6.08
2023-03-03T08:33:40.055Z,5.33
2023-03-03T08:38:42.969Z,6.63
2023-03-03T08:43:46.085Z,6.55
2023-03-03T08:48:50.407Z,6.18
2023-03-03T08:53:53.230Z,5.94
2023-03-03T08:59:03.482Z,5.45
2023-03-03T09:04:08.024Z,6.33
2023-03-03T09:09:10.782Z,5.64
2023-03-03T09:14:15.052Z,6.26
2023-03-03T09:19:24.204Z,6.12
2023-03-03T09:24:28.411Z,6.39
2023-03-03T09:29:32.947Z,5.98
2023-03-03T09:34:42.367Z,5.62
2023-03-03T09:39:47.504Z,5.49
2023-03-03T09:45:19.516Z,5.73
2023-03-03T09:50:36.941Z,6.56
2023-03-03T09:55:48.928Z,6.59
2023-03-03T10:01:00.496Z,7.36
2023-03-03T10:06:10.138Z,7.25
2023-03-03T10:11:21.335Z,7.26
2023-03-03T10:16:40.890Z,7.83
2023-03-03T10:21:52.121Z,8.45
2023-03-03T10:27:14.558Z,8.77
2023-03-03T10:32:34.062Z,8.31
2023-03-03T10:37:49.819Z,7.82
2023-03-03T10:43:13.691Z,7.40
2023-03-03T10:48:39.920Z,7.48
2023-03-03T10:53:50.022Z,8.23
2023-03-03T10:59:04.756Z,7.25
2023-03-03T11:04:30.338Z,8.60
2023-03-03T11:09:51.809Z,7.47
2023-03-03T11:15:12.381Z,8.63
2023-03-03T11:20:29.549Z,8.22
2023-03-03T11:25:40.897Z,7.82
2023-03-03T11:31:03.317Z,8.75
2023-03-03T11:36:13.480Z,8.36
2023-03-03T11:41:28.907Z,8.96
2023-03-03T11:46:37.684Z,9.31
2023-03-03T11:51:50.145Z,8.74
2023-03-03T11:56:59.760Z,9.07
2023-03-03T12:02:12.027Z,9.04
2023-03-03T12:07:26.520Z,10.02
2023-03-03T12:12:35.939Z,11.33
2023-03-03T12:18:03.643Z,11.72
2023-03-03T12:23:19.750Z,11.86
2023-03-03T12:28:27.087Z,11.51
2023-03-03T12:33:40.266Z,10.96
2023-03-03T12:38:52.025Z,10.81
2023-03-03T12:44:03.668Z,11.88
2023-03-03T12:49:06.452Z,11.39
2023-03-03T12:54:37.480Z,11.23
2023-03-03T12:59:53.203Z,10.96
2023-03-03T13:05:01.849Z,11.27
2023-03-03T13:10:16.462Z,10.84
2023-03-03T13:15:31.688Z,10.37
2023-03-03T13:20:45.622Z,11.04
2023-03-03T13:25:54.148Z,10.90
2023-03-03T13:31:04.085Z,10.97
2023-03-03T13:36:10.213Z,10.44
2023-03-03T13:41:21.732Z,11.09
2023-03-03T13:46:39.513Z,10.84
2023-03-03T13:51:48.758Z,10.02
2023-03-03T13:57:15.391Z,9.80
2023-03-03T14:02:42.382Z,10.34
2023-03-03T14:07:53.252Z,9.92
2023-03-03T14:13:04.434Z,9.87
2023-03-03T14:18:22.780Z,10.23
2023-03-03T14:23:32.505Z,10.34
2023-03-03T14:28:41.228Z,10.16
2023-03-03T14:33:57.412Z,9.79
2023-03-03T14:39:00.923Z,10.00
2023-03-03T14:44:25.022Z,9.49
2023-03-03T14:49:33.352Z,10.09
2023-03-03T14:54:40.388Z,10.05
2023-03-03T14:59:56.867Z,9.74
2023-03-03T15:05:23.111Z,9.64
2023-03-03T15:10:34.921Z,9.55
2023-03-03T15:15:53.701Z,9.47
2023-03-03T15:21:02.013Z,9.28
2023-03-03T15:26:10.865Z,9.49
2023-03-03T15:31:26.198Z,9.10
2023-03-03T15:36:40.191Z,8.98
2023-03-03T15:41:45.958Z,8.69
2023-03-03T15:47:05.611Z,9.27
2023-03-03T15:52:23.637Z,8.84
2023-03-03T15:57:42.045Z,8.48
2023-03-03T16:02:53.727Z,8.71
2023-03-03T16:08:06.060Z,8.91
2023-03-03T16:13:23.486Z,9.16
2023-03-03T16:18:38.857Z,9.04
2023-03-03T16:23:48.825Z,9.20
2023-03-03T16:29:08.644Z,8.65
2023-03-03T16:34:19.360Z,8.33
2023-03-03T16:39:31.005Z,7.89
2023-03-03T16:44:43.246Z,8.75
2023-03-03T16:49:53.352Z,8.08
2023-03-03T16:55:04.115Z,8.24
2023-03-03T17:00:13.214Z,8.04
2023-03-03T17:05:29.170Z,8.27
2023-03-03T17:10:37.956Z,8.35
2023-03-03T17:15:49.518Z,8.36
2023-03-03T17:20:57.346Z,8.52
2023-03-03T17:26:09.884Z,8.29
2023-03-03T17:31:22.413Z,8.32
2023-03-03T17:36:37.215Z,7.97
2023-03-03T17:41:47.236Z,8.17
2023-03-03T17:46:54.979Z,7.95
2023-03-03T17:52:21.252Z,7.66
2023-03-03T17:57:36.617Z,8.17
2023-03-03T18:02:54.356Z,7.88
2023-03-03T18:08:12.672Z,7.93
2023-03-03T18:13:34.421Z,8.22
2023-03-03T18:18:55.342Z,7.94
2023-03-03T18:24:27.775Z,7.83
2023-03-03T18:29:32.546Z,7.61
2023-03-03T18:34:38.135Z,7.56
2023-03-03T18:39:45.585Z,7.54
2023-03-03T18:44:49.950Z,7.30
2023-03-03T18:49:59.285Z,7.39
2023-03-03T18:55:20.834Z,7.37
2023-03-03T19:00:30.139Z,7.32
2023-03-03T19:05:47.238Z,7.19
2023-03-03T19:10:53.514Z,7.30
2023-03-03T19:15:59.750Z,7.11
2023-03-03T19:21:05.630Z,7.02
2023-03-03T19:26:38.164Z,7.10
2023-03-03T19:31:48.144Z,6.98
2023-03-03T19:37:12.510Z,6.56
2023-03-03T19:42:25.999Z,6.91
2023-03-03T19:47:39.737Z,6.88
2023-03-03T19:52:47.773Z,6.69
2023-03-03T19:57:59.833Z,7.25
2023-03-03T20:03:34.984Z,6.86
2023-03-03T20:08:44.984Z,6.95
2023-03-03T20:13:59.667Z,7.56
2023-03-03T20:19:17.412Z,7.41
2023-03-03T20:24:42.502Z,7.14
2023-03-03T20:30:03.351Z,7.42
2023-03-03T20:35:21.114Z,7.74
2023-03-03T20:40:34.092Z,7.87
2023-03-03T20:45:49.779Z,7.27
2023-03-03T20:51:03.452Z,7.82
2023-03-03T20:56:14.435Z,7.79
2023-03-03T21:01:28.336Z,7.86
2023-03-03T21:06:40.759Z,8.03
2023-03-03T21:11:44.993Z,7.59
2023-03-03T21:16:48.086Z,8.01
2023-03-03T21:21:53.212Z,8.21
2023-03-03T21:26:57.069Z,8.05
2023-03-03T21:32:01.222Z,7.95
2023-03-03T21:37:07.081Z,7.60
2023-03-03T21:42:12.014Z,7.54
2023-03-03T21:47:16.353Z,7.73
2023-03-03T21:52:21.829Z,7.88
2023-03-03T21:57:25.023Z,8.01
2023-03-03T22:02:27.820Z,7.71
2023-03-03T22:07:32.015Z,8.06
2023-03-03T22:12:34.718Z,8.06
2023-03-03T22:17:37.474Z,7.79
2023-03-03T22:22:41.519Z,8.00
2023-03-03T22:27:44.249Z,7.79
2023-03-03T22:32:46.983Z,8.19
2023-03-03T22:37:51.056Z,8.43
2023-03-03T22:42:53.782Z,8.30
2023-03-03T22:47:56.542Z,8.04
2023-03-03T22:53:00.642Z,8.33
2023-03-03T22:58:03.710Z,8.32
2023-03-03T23:03:06.940Z,8.49
2023-03-03T23:08:14.904Z,8.48
2023-03-03T23:13:17.857Z,8.39
2023-03-03T23:18:20.582Z,8.71
2023-03-03T23:23:25.344Z,8.10
2023-03-03T23:28:28.353Z,8.26
2023-03-03T23:33:31.089Z,8.24
2023-03-03T23:38:35.186Z,8.32
2023-03-03T23:43:37.937Z,8.40
2023-03-03T23:48:40.695Z,8.47
2023-03-03T23:53:44.778Z,8.74
2023-03-03T23:58:47.681Z,8.36
